.
WxDataArchive / Data Records for 2013-04-05
2013-04-04 April 2013 2013-04-06

Data Records for Friday, 05 April 2013

Time	Temp	Chill	HIndex	Humid	Dewpt	 Wind 	HiWind	WindDir	Rain 	Barom 
-----	----	-----	------	-----	-----	------	------	-------	-----	----- 
00:00	36.2	36.2	36.2	54	21.2	0	0	---	0.00	29.975 
00:05	36.3	36.3	36.3	54	21.3	0	0	---	0.00	29.975 
00:10	36.2	36.2	36.2	55	21.6	0	0	---	0.00	29.975 
00:15	36.2	36.2	36.2	55	21.6	0	0	---	0.00	29.973 
00:20	36.0	36.0	36.0	55	21.4	0	0	---	0.00	29.973 
00:25	35.9	35.9	35.9	55	21.3	0	0	---	0.00	29.973 
00:30	35.9	35.9	35.9	55	21.3	0	0	---	0.00	29.970 
00:35	35.6	35.6	35.6	55	21.0	0	0	---	0.00	29.970 
00:40	35.5	35.5	35.5	56	21.4	0	0	---	0.00	29.970 
00:45	35.3	35.3	35.3	56	21.2	0	0	---	0.00	29.973 
00:50	35.2	35.2	35.2	56	21.1	0	0	---	0.00	29.973 
00:55	35.0	35.0	35.0	57	21.3	0	0	---	0.00	29.973 
01:00	35.0	35.0	35.0	57	21.3	0	0	---	0.00	29.967 
01:05	35.0	35.0	35.0	57	21.3	0	0	---	0.00	29.967 
01:10	35.0	35.0	35.0	57	21.3	0	0	---	0.00	29.967 
01:15	35.0	35.0	35.0	57	21.3	0	0	---	0.00	29.960 
01:20	34.9	34.9	34.9	58	21.6	0	0	---	0.00	29.960 
01:25	34.9	34.9	34.9	58	21.6	0	0	---	0.00	29.960 
01:30	34.9	34.9	34.9	58	21.6	0	0	---	0.00	29.958 
01:35	34.7	34.7	34.7	58	21.5	0	0	---	0.00	29.958 
01:40	34.6	34.6	34.6	58	21.4	0	0	---	0.00	29.958 
01:45	34.6	34.6	34.6	58	21.4	0	0	---	0.00	29.957 
01:50	34.6	34.6	34.6	58	21.4	0	0	---	0.00	29.957 
01:55	34.6	34.6	34.6	59	21.8	0	0	---	0.00	29.957 
02:00	34.6	34.6	34.6	58	21.4	0	0	---	0.00	29.956 
02:05	34.6	34.6	34.6	59	21.8	0	0	---	0.00	29.956 
02:10	34.6	34.6	34.6	59	21.8	0	0	---	0.00	29.956 
02:15	34.6	34.6	34.6	59	21.8	0	0	---	0.00	29.953 
02:20	34.6	34.6	34.6	59	21.8	0	0	---	0.00	29.953 
02:25	34.4	34.4	34.4	59	21.6	0	0	---	0.00	29.953 
02:30	34.3	34.3	34.3	59	21.5	0	0	---	0.00	29.954 
02:35	34.3	34.3	34.3	59	21.5	0	0	---	0.00	29.954 
02:40	34.1	34.1	34.1	59	21.3	0	0	---	0.00	29.954 
02:45	34.0	34.0	34.0	60	21.6	0	0	---	0.00	29.952 
02:50	33.8	33.8	33.8	60	21.4	0	0	---	0.00	29.952 
02:55	33.7	33.7	33.7	60	21.3	0	0	---	0.00	29.952 
03:00	33.5	33.5	33.5	61	21.5	0	0	---	0.00	29.950 
03:05	33.5	33.5	33.5	61	21.5	0	0	---	0.00	29.950 
03:10	33.5	33.5	33.5	61	21.5	0	0	---	0.00	29.950 
03:15	33.5	33.5	33.5	61	21.5	0	0	---	0.00	29.946 
03:20	33.5	33.5	33.5	61	21.5	0	0	---	0.00	29.946 
03:25	33.5	33.5	33.5	61	21.5	0	0	---	0.00	29.946 
03:30	33.5	33.5	33.5	61	21.5	0	0	---	0.00	29.945 
03:35	33.4	33.4	33.4	62	21.8	0	0	---	0.00	29.945 
03:40	33.4	33.4	33.4	62	21.8	0	0	---	0.00	29.945 
03:45	33.5	33.5	33.5	62	21.9	0	1	248	0.00	29.948 
03:50	34.7	34.7	34.7	61	22.6	0	1	248	0.00	29.948 
03:55	35.6	35.6	35.6	59	22.7	0	0	---	0.00	29.948 
04:00	36.2	36.2	36.2	57	22.5	0	0	---	0.00	29.949 
04:05	36.8	36.8	36.8	56	22.6	0	0	---	0.00	29.949 
04:10	37.5	37.5	37.5	54	22.4	0	0	---	0.00	29.949 
04:15	38.0	38.0	38.0	52	22.0	0	0	---	0.00	29.947 
04:20	38.3	38.3	38.3	51	21.8	0	1	248	0.00	29.947 
04:25	38.5	38.5	38.5	51	22.0	0	1	248	0.00	29.947 
04:30	38.6	38.6	38.6	50	21.6	0	0	---	0.00	29.948 
04:35	38.6	38.6	38.6	50	21.6	0	1	248	0.00	29.948 
04:40	38.5	38.5	38.5	50	21.5	0	0	---	0.00	29.948 
04:45	38.3	38.3	38.3	50	21.3	0	0	---	0.00	29.951 
04:50	38.2	38.2	38.2	51	21.7	0	0	---	0.00	29.951 
04:55	37.8	37.8	37.8	51	21.3	0	0	---	0.00	29.951 
05:00	37.5	37.5	37.5	52	21.5	0	0	---	0.00	29.957 
05:05	37.2	37.2	37.2	53	21.7	0	0	---	0.00	29.957 
05:10	37.0	37.0	37.0	53	21.5	0	0	---	0.00	29.957 
05:15	37.0	37.0	37.0	53	21.5	0	0	---	0.00	29.965 
05:20	37.0	37.0	37.0	52	21.0	0	0	---	0.00	29.965 
05:25	37.0	37.0	37.0	52	21.0	0	0	---	0.00	29.965 
05:30	37.0	37.0	37.0	52	21.0	0	0	---	0.00	29.968 
05:35	37.3	37.3	37.3	52	21.3	0	1	248	0.00	29.968 
05:40	37.6	37.6	37.6	52	21.6	0	1	248	0.00	29.968 
05:45	37.6	37.6	37.6	51	21.1	0	0	---	0.00	29.973 
05:50	37.6	37.6	37.6	52	21.6	0	0	---	0.00	29.973 
05:55	37.6	37.6	37.6	52	21.6	0	1	248	0.00	29.973 
06:00	37.6	37.6	37.6	52	21.6	0	0	---	0.00	29.976 
06:05	37.6	37.6	37.6	52	21.6	0	1	248	0.00	29.976 
06:10	37.6	37.6	37.6	53	22.0	0	1	248	0.00	29.976 
06:15	37.6	37.6	37.6	53	22.0	0	1	248	0.00	29.983 
06:20	37.8	37.8	37.8	53	22.2	0	1	248	0.00	29.983 
06:25	37.9	37.9	37.9	52	21.9	0	1	248	0.00	29.983 
06:30	37.9	37.9	37.9	53	22.3	0	1	248	0.00	29.990 
06:35	37.9	37.9	37.9	53	22.3	0	1	248	0.00	29.990 
06:40	37.9	37.9	37.9	53	22.3	0	1	248	0.00	29.990 
06:45	37.9	37.9	37.9	53	22.3	0	1	248	0.00	30.001 
06:50	37.8	37.8	37.8	53	22.2	0	0	---	0.00	30.001 
06:55	37.6	37.6	37.6	54	22.5	0	1	248	0.00	30.001 
07:00	37.6	37.6	37.6	54	22.5	0	1	248	0.00	30.015 
07:05	37.5	37.5	37.5	54	22.4	0	1	248	0.00	30.015 
07:10	37.3	37.3	37.3	54	22.2	0	1	248	0.00	30.015 
07:15	37.2	37.2	37.2	55	22.5	0	1	248	0.00	30.030 
07:20	37.3	37.3	37.3	55	22.6	0	1	248	0.00	30.030 
07:25	37.5	37.5	37.5	55	22.8	0	1	248	0.00	30.030 
07:30	37.6	37.6	37.6	55	22.9	0	1	248	0.00	30.035 
07:35	37.6	37.6	37.6	55	22.9	0	1	248	0.00	30.035 
07:40	37.8	37.8	37.8	56	23.5	0	2	248	0.00	30.035 
07:45	38.0	38.0	38.0	56	23.7	0	2	248	0.00	30.047 
07:50	38.2	38.2	38.2	56	23.9	0	3	248	0.00	30.047 
07:55	38.3	38.3	38.3	57	24.4	1	4	0	0.00	30.047 
08:00	38.5	38.5	38.5	57	24.6	0	2	338	0.00	30.056 
08:05	38.6	38.6	38.6	57	24.7	0	3	338	0.00	30.056 
08:10	38.8	38.8	38.8	58	25.3	0	2	338	0.00	30.056 
08:15	39.1	39.1	39.1	58	25.6	0	2	338	0.00	30.067 
08:20	39.3	39.3	39.3	58	25.8	0	3	90	0.00	30.067 
08:25	39.5	39.5	39.5	58	26.0	0	2	338	0.00	30.067 
08:30	39.6	39.6	39.6	58	26.1	1	5	338	0.00	30.076 
08:35	39.9	39.9	39.9	58	26.3	0	1	338	0.00	30.076 
08:40	40.3	40.3	40.3	58	26.7	1	4	68	0.00	30.076 
08:45	40.8	40.8	40.8	57	26.8	1	3	22	0.00	30.080 
08:50	40.9	40.9	40.9	57	26.9	1	4	22	0.00	30.080 
08:55	41.1	41.1	41.1	58	27.5	0	3	45	0.00	30.080 
09:00	41.1	41.1	41.1	59	27.9	1	3	22	0.00	30.084 
09:05	41.2	41.2	41.2	59	28.0	1	5	112	0.00	30.084 
09:10	41.3	41.3	41.3	60	28.5	1	5	135	0.00	30.084 
09:15	41.5	41.5	41.5	61	29.1	1	4	0	0.00	30.096 
09:20	41.9	41.9	41.9	61	29.4	1	3	90	0.00	30.096 
09:25	42.2	42.2	42.2	60	29.3	1	4	0	0.00	30.096 
09:30	42.5	42.5	42.5	61	30.0	1	6	338	0.00	30.100 
09:35	42.8	42.8	42.8	60	29.9	1	5	112	0.00	30.100 
09:40	42.8	42.8	42.8	61	30.3	1	4	112	0.00	30.100 
09:45	43.1	43.1	43.1	62	31.0	1	2	0	0.00	30.100 
09:50	43.3	43.3	43.3	61	30.8	1	4	90	0.00	30.100 
09:55	43.3	43.3	43.3	61	30.8	1	4	0	0.00	30.100 
10:00	43.5	43.5	43.5	62	31.4	1	5	0	0.00	30.106 
10:05	43.6	43.6	43.6	61	31.0	2	6	68	0.00	30.106 
10:10	43.9	43.9	43.9	61	31.3	1	11	0	0.00	30.106 
10:15	44.2	44.2	44.2	61	31.6	1	4	0	0.00	30.109 
10:20	44.5	44.5	44.5	61	31.9	1	5	135	0.00	30.109 
10:25	44.6	44.6	44.6	60	31.6	1	6	338	0.00	30.109 
10:30	45.1	45.1	45.1	60	32.1	2	11	112	0.00	30.117 
10:35	45.4	45.4	45.4	60	32.3	2	6	112	0.00	30.117 
10:40	45.5	45.5	45.5	61	32.8	2	6	112	0.00	30.117 
10:45	45.7	45.7	45.7	60	32.6	2	7	0	0.00	30.119 
10:50	45.5	45.5	45.5	60	32.4	2	5	338	0.00	30.119 
10:55	45.8	45.8	45.8	60	32.7	2	10	112	0.00	30.119 
11:00	46.2	46.2	46.2	58	32.2	1	5	90	0.00	30.123 
11:05	46.5	46.5	46.5	59	33.0	1	4	112	0.00	30.123 
11:10	46.8	46.8	46.8	59	33.2	1	5	112	0.00	30.123 
11:15	47.1	47.1	47.1	58	33.1	1	5	45	0.00	30.129 
11:20	46.4	46.4	46.4	57	32.0	1	4	338	0.00	30.129 
11:25	46.7	46.7	46.7	58	32.7	1	4	68	0.00	30.129 
11:30	47.1	47.1	47.1	56	32.2	2	5	338	0.00	30.130 
11:35	47.4	47.4	47.4	59	33.8	1	5	338	0.00	30.130 
11:40	47.7	47.7	47.7	55	32.3	2	9	112	0.00	30.130 
11:45	47.7	47.7	47.7	56	32.8	1	3	68	0.00	30.131 
11:50	48.5	48.5	48.5	56	33.5	1	5	90	0.00	30.131 
11:55	48.5	48.5	48.5	52	31.7	1	5	338	0.00	30.131 
12:00	48.0	48.0	48.0	52	31.2	1	3	315	0.00	30.134 
12:05	48.3	48.3	48.3	51	31.0	2	6	338	0.00	30.134 
12:10	48.5	48.5	48.5	50	30.7	1	5	0	0.00	30.134 
12:15	48.8	48.8	48.8	49	30.5	0	2	270	0.00	30.133 
12:20	49.4	49.4	49.4	50	31.5	2	7	0	0.00	30.133 
12:25	49.8	49.8	49.8	49	31.4	1	4	45	0.00	30.133 
12:30	50.4	50.4	50.4	48	31.5	1	3	22	0.00	30.132 
12:35	49.9	49.9	49.9	46	30.0	2	4	338	0.00	30.132 
12:40	50.2	50.2	50.2	47	30.8	1	4	338	0.00	30.132 
12:45	50.5	50.5	50.5	45	30.0	1	5	68	0.00	30.131 
12:50	51.1	51.1	51.1	45	30.5	1	3	90	0.00	30.131 
12:55	51.6	51.6	51.6	44	30.4	2	6	90	0.00	30.131 
13:00	51.0	51.0	51.0	46	31.0	3	7	90	0.00	30.129 
13:05	50.7	50.7	50.7	42	28.5	1	7	0	0.00	30.129 
13:10	50.5	50.5	50.5	42	28.3	1	4	315	0.00	30.129 
13:15	50.8	50.8	50.8	44	29.7	1	4	90	0.00	30.128 
13:20	51.1	51.1	51.1	40	27.6	2	5	292	0.00	30.128 
13:25	51.4	51.4	51.4	43	29.7	1	3	270	0.00	30.128 
13:30	51.9	51.9	51.9	40	28.3	0	3	135	0.00	30.128 
13:35	52.2	52.2	52.2	38	27.4	1	3	292	0.00	30.128 
13:40	52.5	52.5	52.5	39	28.3	0	2	292	0.00	30.128 
13:45	52.2	52.2	52.2	35	25.4	2	6	292	0.00	30.128 
13:50	51.7	51.7	51.7	36	25.6	2	4	315	0.00	30.128 
13:55	51.7	51.7	51.7	35	24.9	2	6	338	0.00	30.128 
14:00	51.3	51.3	51.3	34	23.9	2	5	0	0.00	30.124 
14:05	51.4	51.4	51.4	37	26.0	1	5	90	0.00	30.124 
14:10	52.0	52.0	52.0	37	26.5	1	3	0	0.00	30.124 
14:15	52.2	52.2	52.2	35	25.4	1	4	338	0.00	30.120 
14:20	52.5	52.5	52.5	30	22.0	1	3	338	0.00	30.120 
14:25	52.5	52.5	52.5	28	20.4	2	6	292	0.00	30.120 
14:30	52.2	52.2	52.2	27	19.2	2	5	248	0.00	30.115 
14:35	52.0	52.0	52.0	27	19.1	1	3	338	0.00	30.115 
14:40	52.0	52.0	52.0	29	20.7	2	4	0	0.00	30.115 
14:45	52.3	52.3	52.3	27	19.3	2	4	90	0.00	30.115 
14:50	52.3	52.3	52.3	28	20.2	2	4	292	0.00	30.115 
14:55	52.2	52.2	52.2	27	19.2	2	6	338	0.00	30.115 
15:00	52.3	52.3	52.3	29	21.0	1	5	315	0.00	30.115 
15:05	52.6	52.6	52.6	28	20.4	2	7	90	0.00	30.115 
15:10	52.5	52.5	52.5	28	20.4	2	7	292	0.00	30.115 
15:15	52.3	52.3	52.3	27	19.3	1	6	338	0.00	30.110 
15:20	52.2	52.2	52.2	27	19.2	2	6	0	0.00	30.110 
15:25	52.2	52.2	52.2	29	20.9	1	5	0	0.00	30.110 
15:30	52.5	52.5	52.5	25	17.7	2	6	315	0.00	30.102 
15:35	52.5	52.5	52.5	26	18.6	2	5	315	0.00	30.102 
15:40	52.3	52.3	52.3	27	19.3	1	3	270	0.00	30.102 
15:45	52.8	52.8	52.8	25	18.0	2	4	270	0.00	30.098 
15:50	53.1	53.1	53.1	26	19.1	1	7	292	0.00	30.098 
15:55	53.3	53.3	53.3	28	21.0	1	3	0	0.00	30.098 
16:00	53.3	53.3	53.3	25	18.4	1	7	90	0.00	30.094 
16:05	53.2	53.2	53.2	26	19.2	1	5	90	0.00	30.094 
16:10	52.9	52.9	52.9	22	15.1	1	6	0	0.00	30.094 
16:15	52.6	52.6	52.6	22	14.9	2	5	0	0.00	30.095 
16:20	52.8	52.8	52.8	24	17.0	1	4	292	0.00	30.095 
16:25	52.6	52.6	52.6	23	15.9	1	4	292	0.00	30.095 
16:30	52.5	52.5	52.5	24	16.8	1	5	292	0.00	30.092 
16:35	52.5	52.5	52.5	26	18.6	2	6	0	0.00	30.092 
16:40	52.5	52.5	52.5	23	15.8	1	2	68	0.00	30.092 
16:45	52.5	52.5	52.5	24	16.8	2	10	68	0.00	30.082 
16:50	52.9	52.9	52.9	23	16.1	1	4	45	0.00	30.082 
16:55	52.9	52.9	52.9	21	14.0	1	4	45	0.00	30.082 
17:00	52.6	52.6	52.6	20	12.7	1	5	338	0.00	30.082 
17:05	52.6	52.6	52.6	21	13.8	1	5	338	0.00	30.082 
17:10	52.8	52.8	52.8	20	12.9	1	4	315	0.00	30.082 
17:15	52.8	52.8	52.8	21	14.0	0	3	315	0.00	30.084 
17:20	52.8	52.8	52.8	20	12.9	1	6	338	0.00	30.084 
17:25	52.9	52.9	52.9	20	12.9	1	2	338	0.00	30.084 
17:30	52.9	52.9	52.9	20	12.9	1	6	338	0.00	30.086 
17:35	52.8	52.8	52.8	20	12.9	0	3	315	0.00	30.086 
17:40	52.8	52.8	52.8	20	12.9	0	2	112	0.00	30.086 
17:45	52.8	52.8	52.8	18	10.5	1	4	45	0.00	30.093 
17:50	52.6	52.6	52.6	20	12.7	1	4	90	0.00	30.093 
17:55	52.8	52.8	52.8	19	11.7	1	2	90	0.00	30.093 
18:00	52.8	52.8	52.8	20	12.9	0	3	0	0.00	30.092 
18:05	52.9	52.9	52.9	22	15.1	1	4	0	0.00	30.092 
18:10	52.8	52.8	52.8	20	12.9	1	3	0	0.00	30.092 
18:15	52.8	52.8	52.8	20	12.9	1	3	45	0.00	30.095 
18:20	52.5	52.5	52.5	21	13.7	0	2	338	0.00	30.095 
18:25	52.5	52.5	52.5	20	12.6	0	2	338	0.00	30.095 
18:30	52.3	52.3	52.3	20	12.4	1	3	90	0.00	30.098 
18:35	52.0	52.0	52.0	21	13.3	0	2	90	0.00	30.098 
18:40	51.9	51.9	51.9	21	13.2	0	2	90	0.00	30.098 
18:45	51.7	51.7	51.7	21	13.0	1	5	338	0.00	30.097 
18:50	51.7	51.7	51.7	20	11.9	1	3	0	0.00	30.097 
18:55	51.7	51.7	51.7	20	11.9	0	2	0	0.00	30.097 
19:00	51.6	51.6	51.6	20	11.9	1	3	0	0.00	30.102 
19:05	51.6	51.6	51.6	21	13.0	0	1	0	0.00	30.102 
19:10	51.4	51.4	51.4	22	13.8	0	1	0	0.00	30.102 
19:15	51.3	51.3	51.3	21	12.7	0	1	0	0.00	30.109 
19:20	51.0	51.0	51.0	21	12.5	1	2	0	0.00	30.109 
19:25	50.8	50.8	50.8	21	12.3	1	3	0	0.00	30.109 
19:30	50.5	50.5	50.5	21	12.0	0	1	292	0.00	30.114 
19:35	50.4	50.4	50.4	21	12.0	0	1	292	0.00	30.114 
19:40	50.1	50.1	50.1	21	11.7	0	1	292	0.00	30.114 
19:45	49.8	49.8	49.8	22	12.5	0	2	292	0.00	30.125 
19:50	49.6	49.6	49.6	22	12.3	0	2	292	0.00	30.125 
19:55	49.5	49.5	49.5	22	12.3	0	1	292	0.00	30.125 
20:00	49.4	49.4	49.4	22	12.2	0	1	292	0.00	30.128 
20:05	49.2	49.2	49.2	22	12.0	0	1	292	0.00	30.128 
20:10	48.9	48.9	48.9	22	11.8	0	0	---	0.00	30.128 
20:15	48.5	48.5	48.5	22	11.4	0	0	---	0.00	30.128 
20:20	48.0	48.0	48.0	23	12.0	0	0	---	0.00	30.128 
20:25	47.4	47.4	47.4	23	11.5	0	0	---	0.00	30.128 
20:30	46.8	46.8	46.8	24	11.9	0	0	---	0.00	30.131 
20:35	46.2	46.2	46.2	24	11.4	0	0	---	0.00	30.131 
20:40	45.7	45.7	45.7	25	11.9	0	0	---	0.00	30.131 
20:45	45.1	45.1	45.1	26	12.3	0	0	---	0.00	30.137 
20:50	44.5	44.5	44.5	26	11.8	0	0	---	0.00	30.137 
20:55	44.1	44.1	44.1	27	12.3	0	0	---	0.00	30.137 
21:00	43.5	43.5	43.5	28	12.6	0	0	---	0.00	30.147 
21:05	43.1	43.1	43.1	28	12.2	0	0	---	0.00	30.147 
21:10	42.6	42.6	42.6	29	12.6	0	0	---	0.00	30.147 
21:15	42.2	42.2	42.2	31	13.8	0	0	---	0.00	30.146 
21:20	41.9	41.9	41.9	32	14.2	0	0	---	0.00	30.146 
21:25	41.6	41.6	41.6	33	14.7	0	0	---	0.00	30.146 
21:30	41.3	41.3	41.3	33	14.4	0	0	---	0.00	30.150 
21:35	41.1	41.1	41.1	33	14.2	0	0	---	0.00	30.150 
21:40	40.8	40.8	40.8	34	14.6	0	0	---	0.00	30.150 
21:45	40.5	40.5	40.5	34	14.4	0	0	---	0.00	30.150 
21:50	40.2	40.2	40.2	35	14.8	0	0	---	0.00	30.150 
21:55	39.9	39.9	39.9	35	14.5	0	0	---	0.00	30.150 
22:00	39.8	39.8	39.8	36	15.0	0	0	---	0.00	30.161 
22:05	39.6	39.6	39.6	37	15.5	0	0	---	0.00	30.161 
22:10	39.3	39.3	39.3	37	15.2	0	0	---	0.00	30.161 
22:15	39.1	39.1	39.1	38	15.7	0	0	---	0.00	30.172 
22:20	38.8	38.8	38.8	39	16.0	0	0	---	0.00	30.172 
22:25	38.5	38.5	38.5	39	15.7	0	0	---	0.00	30.172 
22:30	38.5	38.5	38.5	38	15.1	0	0	---	0.00	30.179 
22:35	38.3	38.3	38.3	39	15.5	0	0	---	0.00	30.179 
22:40	38.5	38.5	38.5	40	16.3	0	0	---	0.00	30.179 
22:45	38.5	38.5	38.5	39	15.7	0	0	---	0.00	30.181 
22:50	38.3	38.3	38.3	39	15.5	0	1	292	0.00	30.181 
22:55	38.5	38.5	38.5	39	15.7	0	2	292	0.00	30.181 
23:00	39.3	39.3	39.3	37	15.2	0	2	292	0.00	30.182 
23:05	39.5	39.5	39.5	38	16.0	0	1	292	0.00	30.182 
23:10	39.6	39.6	39.6	38	16.1	0	1	292	0.00	30.182 
23:15	39.6	39.6	39.6	39	16.7	0	1	292	0.00	30.176 
23:20	39.6	39.6	39.6	40	17.3	0	1	292	0.00	30.176 
23:25	39.5	39.5	39.5	41	17.8	0	0	---	0.00	30.176 
23:30	39.3	39.3	39.3	41	17.6	0	0	---	0.00	30.174 
23:35	39.1	39.1	39.1	42	18.0	0	0	---	0.00	30.174 
23:40	38.8	38.8	38.8	43	18.2	0	0	---	0.00	30.174 
23:45	38.6	38.6	38.6	44	18.6	0	1	292	0.00	30.162 
23:50	38.3	38.3	38.3	45	18.8	0	0	---	0.00	30.162 
23:55	38.2	38.2	38.2	46	19.3	0	0	---	0.00	30.162 

CoCoRaHS
IN-AL-39
A2 Web Hosting
Creative Commons License
GoDaddy
search engine by freefind advanced

loaded 2018-11-15 13:52:02 • last modified 2010-11-18 10:43:29
Privacy PolicyDisclaimer
• wx.awcolley.com is powered by PmWiki v.2002016 •
• all content (unless otherwise noted) © 2018 A W Colley